createdAt,value
2023-01-10T00:01:29.446Z,5.36
2023-01-10T00:04:01.824Z,5.36
2023-01-10T00:06:36.711Z,5.36
2023-01-10T00:09:10.620Z,5.38
2023-01-10T00:12:01.039Z,5.35
2023-01-10T00:14:37.525Z,5.35
2023-01-10T00:17:08.484Z,5.36
2023-01-10T00:19:40.948Z,5.38
2023-01-10T00:22:11.851Z,5.38
2023-01-10T00:24:42.639Z,5.39
2023-01-10T00:27:24.318Z,5.40
2023-01-10T00:29:56.826Z,5.41
2023-01-10T00:32:33.709Z,5.43
2023-01-10T00:35:13.395Z,5.43
2023-01-10T00:37:49.662Z,5.45
2023-01-10T00:40:21.775Z,5.45
2023-01-10T00:43:23.598Z,5.45
2023-01-10T00:45:55.633Z,5.46
2023-01-10T00:48:25.917Z,5.47
2023-01-10T00:50:55.381Z,5.49
2023-01-10T00:53:27.475Z,5.52
2023-01-10T00:55:58.431Z,5.54
2023-01-10T00:58:30.382Z,5.54
2023-01-10T01:01:03.433Z,5.56
2023-01-10T01:03:38.903Z,5.57
2023-01-10T01:06:09.205Z,5.59
2023-01-10T01:08:38.759Z,5.60
2023-01-10T01:11:11.039Z,5.61
2023-01-10T01:13:47.410Z,5.62
2023-01-10T01:16:23.183Z,5.62
2023-01-10T01:18:53.478Z,5.60
2023-01-10T01:21:29.465Z,5.61
2023-01-10T01:24:09.508Z,5.60
2023-01-10T01:26:43.046Z,5.60
2023-01-10T01:29:17.276Z,5.59
2023-01-10T01:31:54.789Z,5.59
2023-01-10T01:34:28.069Z,5.61
2023-01-10T01:37:02.412Z,5.59
2023-01-10T01:39:31.844Z,5.61
2023-01-10T01:42:03.131Z,5.60
2023-01-10T01:44:42.003Z,5.61
2023-01-10T01:47:28.075Z,5.62
2023-01-10T01:50:05.209Z,5.61
2023-01-10T01:52:40.450Z,5.59
2023-01-10T01:55:10.755Z,5.57
2023-01-10T01:57:49.566Z,5.53
2023-01-10T02:00:19.940Z,5.48
2023-01-10T02:03:02.561Z,5.45
2023-01-10T02:05:39.785Z,5.42
2023-01-10T02:08:13.150Z,5.39
2023-01-10T02:11:12.372Z,5.37
2023-01-10T02:13:46.575Z,5.34
2023-01-10T02:16:20.489Z,5.33
2023-01-10T02:18:52.853Z,5.31
2023-01-10T02:21:33.072Z,5.30
2023-01-10T02:25:03.639Z,5.26
2023-01-10T02:28:01.443Z,5.18
2023-01-10T02:31:05.241Z,5.11
2023-01-10T02:33:53.788Z,5.05
2023-01-10T02:37:22.152Z,5.01
2023-01-10T02:40:24.712Z,4.95
2023-01-10T02:43:20.784Z,4.92
2023-01-10T02:46:11.773Z,4.81
2023-01-10T02:48:41.622Z,4.79
2023-01-10T02:51:21.939Z,4.80
2023-01-10T02:54:08.513Z,4.80
2023-01-10T02:57:14.846Z,4.79
2023-01-10T03:00:23.203Z,4.76
2023-01-10T03:03:33.137Z,4.71
2023-01-10T03:06:27.199Z,4.66
2023-01-10T03:09:13.376Z,4.63
2023-01-10T03:11:49.161Z,4.61
2023-01-10T03:14:30.813Z,4.60
2023-01-10T03:17:11.413Z,4.57
2023-01-10T03:19:56.708Z,4.56
2023-01-10T03:22:36.249Z,4.53
2023-01-10T03:25:13.926Z,4.52
2023-01-10T03:28:05.237Z,4.52
2023-01-10T03:30:54.685Z,4.51
2023-01-10T03:33:35.030Z,4.50
2023-01-10T03:36:43.470Z,4.51
2023-01-10T03:39:31.157Z,4.50
2023-01-10T03:42:20.574Z,4.50
2023-01-10T03:45:09.175Z,4.52
2023-01-10T03:47:55.091Z,4.52
2023-01-10T03:50:33.095Z,4.53
2023-01-10T03:53:03.296Z,4.52
2023-01-10T03:55:38.883Z,4.52
2023-01-10T03:58:11.196Z,4.53
2023-01-10T04:00:47.631Z,4.55
2023-01-10T04:03:17.465Z,4.55
2023-01-10T04:05:47.356Z,4.56
2023-01-10T04:08:26.699Z,4.56
2023-01-10T04:11:04.902Z,4.57
2023-01-10T04:13:47.306Z,4.58
2023-01-10T04:16:36.061Z,4.55
2023-01-10T04:19:14.928Z,4.54
2023-01-10T04:21:48.320Z,4.55
2023-01-10T04:24:20.465Z,4.54
2023-01-10T04:26:50.364Z,4.46
2023-01-10T04:29:27.390Z,4.46
2023-01-10T04:32:03.163Z,4.47
2023-01-10T04:34:33.401Z,4.47
2023-01-10T04:37:07.177Z,4.49
2023-01-10T04:39:38.455Z,4.50
2023-01-10T04:42:15.397Z,4.52
2023-01-10T04:44:48.050Z,4.53
2023-01-10T04:47:22.048Z,4.53
2023-01-10T04:50:32.404Z,4.53
2023-01-10T04:53:18.440Z,4.51
2023-01-10T04:56:11.575Z,4.51
2023-01-10T04:58:47.553Z,4.52
2023-01-10T05:01:28.495Z,4.53
2023-01-10T05:04:03.489Z,4.53
2023-01-10T05:06:40.640Z,4.53
2023-01-10T05:09:14.045Z,4.52
2023-01-10T05:11:48.858Z,4.52
2023-01-10T05:14:22.355Z,4.54
2023-01-10T05:16:56.835Z,4.55
2023-01-10T05:19:28.819Z,4.56
2023-01-10T05:22:00.585Z,4.57
2023-01-10T05:24:30.304Z,4.59
2023-01-10T05:27:06.035Z,4.61
2023-01-10T05:29:39.894Z,4.62
2023-01-10T05:32:09.570Z,4.63
2023-01-10T05:34:42.925Z,4.63
2023-01-10T05:37:14.925Z,4.63
2023-01-10T05:39:51.872Z,4.63
2023-01-10T05:42:30.927Z,4.62
2023-01-10T05:45:08.139Z,4.61
2023-01-10T05:47:42.950Z,4.60
2023-01-10T05:50:13.343Z,4.60
2023-01-10T05:52:48.890Z,4.57
2023-01-10T05:55:22.999Z,4.55
2023-01-10T05:57:59.937Z,4.52
2023-01-10T06:00:32.269Z,4.51
2023-01-10T06:03:07.964Z,4.51
2023-01-10T06:05:49.710Z,4.52
2023-01-10T06:08:24.880Z,4.51
2023-01-10T06:10:55.930Z,4.50
2023-01-10T06:13:27.507Z,4.47
2023-01-10T06:15:58.137Z,4.46
2023-01-10T06:18:32.390Z,4.45
2023-01-10T06:21:13.762Z,4.45
2023-01-10T06:23:45.978Z,4.44
2023-01-10T06:26:19.012Z,4.44
2023-01-10T06:28:50.856Z,4.43
2023-01-10T06:31:22.581Z,4.44
2023-01-10T06:33:53.160Z,4.44
2023-01-10T06:36:22.760Z,4.34
2023-01-10T06:38:55.604Z,4.34
2023-01-10T06:41:27.427Z,4.36
2023-01-10T06:43:56.958Z,4.39
2023-01-10T06:46:26.498Z,4.41
2023-01-10T06:48:55.936Z,4.43
2023-01-10T06:51:25.331Z,4.48
2023-01-10T06:53:58.993Z,4.49
2023-01-10T06:56:29.555Z,4.51
2023-01-10T06:59:01.642Z,4.52
2023-01-10T07:01:32.129Z,4.53
2023-01-10T07:04:01.366Z,4.56
2023-01-10T07:06:31.877Z,4.59
2023-01-10T07:09:01.164Z,4.61
2023-01-10T07:11:32.231Z,4.63
2023-01-10T07:14:03.336Z,4.67
2023-01-10T07:16:32.972Z,4.71
2023-01-10T07:19:02.583Z,4.74
2023-01-10T07:21:34.839Z,4.77
2023-01-10T07:24:05.046Z,4.79
2023-01-10T07:26:34.433Z,4.82
2023-01-10T07:29:03.687Z,4.87
2023-01-10T07:31:35.215Z,4.93
2023-01-10T07:34:05.325Z,4.97
2023-01-10T07:36:39.537Z,5.01
2023-01-10T07:39:12.304Z,5.03
2023-01-10T07:41:42.304Z,5.05
2023-01-10T07:44:19.351Z,5.09
2023-01-10T07:46:51.382Z,5.11
2023-01-10T07:49:23.265Z,5.12
2023-01-10T07:51:55.094Z,5.12
2023-01-10T07:54:35.687Z,5.14
2023-01-10T07:57:10.204Z,5.15
2023-01-10T07:59:42.388Z,5.14
2023-01-10T08:02:13.123Z,5.14
2023-01-10T08:04:44.904Z,5.15
2023-01-10T08:07:14.447Z,5.17
2023-01-10T08:09:45.761Z,5.22
2023-01-10T08:12:17.566Z,5.25
2023-01-10T08:14:56.710Z,5.26
2023-01-10T08:17:30.550Z,5.32
2023-01-10T08:20:05.490Z,5.38
2023-01-10T08:22:46.076Z,5.31
2023-01-10T08:25:22.330Z,5.33
2023-01-10T08:28:04.943Z,5.39
2023-01-10T08:30:41.276Z,5.45
2023-01-10T08:33:24.896Z,5.49
2023-01-10T08:36:11.245Z,5.48
2023-01-10T08:38:48.441Z,5.50
2023-01-10T08:41:36.252Z,5.53
2023-01-10T08:44:09.453Z,5.55
2023-01-10T08:46:51.139Z,5.57
2023-01-10T08:49:29.799Z,5.59
2023-01-10T08:52:08.939Z,5.61
2023-01-10T08:54:50.344Z,5.65
2023-01-10T08:57:30.756Z,5.70
2023-01-10T09:00:14.880Z,5.73
2023-01-10T09:02:49.604Z,5.76
2023-01-10T09:05:30.734Z,5.77
2023-01-10T09:08:09.711Z,5.80
2023-01-10T09:10:49.167Z,5.78
2023-01-10T09:13:26.795Z,5.74
2023-01-10T09:16:02.718Z,5.73
2023-01-10T09:18:38.230Z,5.71
2023-01-10T09:21:11.223Z,5.71
2023-01-10T09:23:48.650Z,5.73
2023-01-10T09:26:21.710Z,5.77
2023-01-10T09:28:54.199Z,5.79
2023-01-10T09:31:26.989Z,5.80
2023-01-10T09:37:38.295Z,5.84
2023-01-10T09:40:19.783Z,5.89
2023-01-10T09:43:22.119Z,5.93
2023-01-10T09:46:26.921Z,5.94
2023-01-10T09:49:46.353Z,5.94
2023-01-10T09:52:34.893Z,5.92
2023-01-10T09:55:32.496Z,5.93
2023-01-10T09:58:39.239Z,5.91
2023-01-10T10:01:37.169Z,5.92
2023-01-10T10:04:25.381Z,5.96
2023-01-10T10:07:13.199Z,5.99
2023-01-10T10:09:56.424Z,6.00
2023-01-10T10:13:26.983Z,5.98
2023-01-10T10:16:38.000Z,5.95
2023-01-10T10:19:56.024Z,5.98
2023-01-10T10:23:34.018Z,6.04
2023-01-10T10:26:51.278Z,6.10
2023-01-10T10:30:23.469Z,6.14
2023-01-10T10:33:51.248Z,6.16
2023-01-10T10:37:06.110Z,6.21
2023-01-10T10:39:59.346Z,6.23
2023-01-10T10:42:49.377Z,6.24
2023-01-10T10:45:46.732Z,6.27
2023-01-10T10:48:40.116Z,6.32
2023-01-10T10:51:26.163Z,6.35
2023-01-10T10:53:57.559Z,6.36
2023-01-10T10:56:31.962Z,6.42
2023-01-10T10:59:04.903Z,6.45
2023-01-10T11:01:38.888Z,6.49
2023-01-10T11:04:16.333Z,6.57
2023-01-10T11:06:49.464Z,6.61
2023-01-10T11:09:39.768Z,6.65
2023-01-10T11:12:22.407Z,6.67
2023-01-10T11:15:00.391Z,6.69
2023-01-10T11:17:35.886Z,6.68
2023-01-10T11:20:15.938Z,6.67
2023-01-10T11:22:55.734Z,6.67
2023-01-10T11:25:27.458Z,6.66
2023-01-10T11:28:05.216Z,6.66
2023-01-10T11:30:55.407Z,6.68
2023-01-10T11:33:35.791Z,6.64
2023-01-10T11:36:16.242Z,6.59
2023-01-10T11:39:19.740Z,6.57
2023-01-10T11:41:55.656Z,6.57
2023-01-10T11:44:30.490Z,6.60
2023-01-10T11:47:15.119Z,6.61
2023-01-10T11:49:55.812Z,6.61
2023-01-10T11:52:36.219Z,6.62
2023-01-10T11:55:20.297Z,6.62
2023-01-10T11:58:24.495Z,6.65
2023-01-10T12:01:07.376Z,6.69
2023-01-10T12:03:42.334Z,6.72
2023-01-10T12:06:19.043Z,6.74
2023-01-10T12:08:51.859Z,6.75
2023-01-10T12:11:36.042Z,6.75
2023-01-10T12:14:36.268Z,6.74
2023-01-10T12:17:20.789Z,6.74
2023-01-10T12:20:08.573Z,6.74
2023-01-10T12:23:10.610Z,6.76
2023-01-10T12:26:11.435Z,6.70
2023-01-10T12:29:11.647Z,6.71
2023-01-10T12:31:54.697Z,6.69
2023-01-10T12:34:44.849Z,6.70
2023-01-10T12:37:56.138Z,6.74
2023-01-10T12:40:56.941Z,6.71
2023-01-10T12:44:15.185Z,6.67
2023-01-10T12:47:25.762Z,6.63
2023-01-10T12:58:49.630Z,6.52
2023-01-10T13:01:40.697Z,6.55
2023-01-10T13:17:40.875Z,6.67
2023-01-10T13:21:22.105Z,6.69
2023-01-10T13:24:28.829Z,6.72
2023-01-10T13:27:24.647Z,6.74
2023-01-10T13:29:59.119Z,6.77
2023-01-10T13:32:34.981Z,6.77
2023-01-10T13:35:19.321Z,6.76
2023-01-10T13:37:59.104Z,6.76
2023-01-10T13:40:38.301Z,6.78
2023-01-10T13:43:37.197Z,6.77
2023-01-10T13:46:25.964Z,6.76
2023-01-10T13:52:37.111Z,6.76
2023-01-10T13:55:46.359Z,6.75
2023-01-10T13:59:01.264Z,6.71
2023-01-10T14:02:10.809Z,6.67
2023-01-10T14:05:11.614Z,6.62
2023-01-10T14:08:19.128Z,6.62
2023-01-10T14:11:14.362Z,6.64
2023-01-10T14:13:56.679Z,6.67
2023-01-10T14:19:34.834Z,6.65
2023-01-10T14:22:34.150Z,6.65
2023-01-10T14:25:21.546Z,6.64
2023-01-10T14:28:01.988Z,6.64
2023-01-10T14:30:52.403Z,6.62
2023-01-10T14:33:30.783Z,6.63
2023-01-10T14:36:16.669Z,6.62
2023-01-10T14:39:09.772Z,6.61
2023-01-10T14:42:00.770Z,6.60
2023-01-10T14:44:46.234Z,6.58
2023-01-10T14:47:47.243Z,6.58
2023-01-10T14:50:32.769Z,6.60
2023-01-10T14:53:27.116Z,6.61
2023-01-10T14:56:00.601Z,6.62
2023-01-10T14:58:34.218Z,6.61
2023-01-10T15:01:18.819Z,6.59
2023-01-10T15:04:09.574Z,6.58
2023-01-10T15:07:02.014Z,6.54
2023-01-10T15:09:55.714Z,6.42
2023-01-10T15:12:46.233Z,6.38
2023-01-10T15:15:24.925Z,6.41
2023-01-10T15:18:45.142Z,6.43
2023-01-10T15:21:33.253Z,6.44
2023-01-10T15:27:48.454Z,6.47
2023-01-10T15:31:01.078Z,6.50
2023-01-10T15:33:36.758Z,6.51
2023-01-10T15:36:21.551Z,6.53
2023-01-10T15:38:57.961Z,6.55
2023-01-10T15:41:38.567Z,6.56
2023-01-10T15:44:54.708Z,6.55
2023-01-10T15:47:53.161Z,6.55
2023-01-10T15:50:38.962Z,6.55
2023-01-10T15:53:14.030Z,6.55
2023-01-10T15:55:58.687Z,6.53
2023-01-10T15:58:37.076Z,6.52
2023-01-10T16:01:17.239Z,6.52
2023-01-10T16:03:59.055Z,6.51
2023-01-10T16:06:40.678Z,6.50
2023-01-10T16:09:21.805Z,6.47
2023-01-10T16:12:13.320Z,6.45
2023-01-10T16:14:43.620Z,6.40
2023-01-10T16:17:19.174Z,6.37
2023-01-10T16:19:54.389Z,6.36
2023-01-10T16:22:28.932Z,6.34
2023-01-10T16:24:59.658Z,6.32
2023-01-10T16:27:33.813Z,6.31
2023-01-10T16:30:57.195Z,6.29
2023-01-10T16:33:29.423Z,6.24
2023-01-10T16:36:01.119Z,6.25
2023-01-10T16:38:34.019Z,6.29
2023-01-10T16:41:30.649Z,6.28
2023-01-10T16:44:12.259Z,6.24
2023-01-10T16:47:13.393Z,6.21
2023-01-10T16:54:45.125Z,6.15
2023-01-10T16:58:05.329Z,6.08
2023-01-10T17:09:09.786Z,6.04
2023-01-10T17:12:10.567Z,6.05
2023-01-10T17:15:18.850Z,6.07
2023-01-10T17:18:23.849Z,6.07
2023-01-10T17:21:30.989Z,6.08
2023-01-10T17:24:39.705Z,6.08
2023-01-10T17:27:56.650Z,6.08
2023-01-10T17:41:38.773Z,5.97
2023-01-10T17:44:49.386Z,5.96
2023-01-10T17:48:19.836Z,5.96
2023-01-10T17:51:37.462Z,5.98
2023-01-10T17:54:34.195Z,6.00
2023-01-10T17:57:49.712Z,6.04
2023-01-10T18:00:30.746Z,6.06
2023-01-10T18:03:48.006Z,6.07
2023-01-10T18:06:30.131Z,6.08
2023-01-10T18:09:13.567Z,6.10
2023-01-10T18:12:18.163Z,6.12
2023-01-10T18:15:04.078Z,6.12
2023-01-10T18:18:09.440Z,6.17
2023-01-10T18:21:36.755Z,6.17
2023-01-10T18:28:07.546Z,6.20
2023-01-10T18:30:52.619Z,6.24
2023-01-10T18:33:57.237Z,6.17
2023-01-10T18:36:51.866Z,6.19
2023-01-10T18:43:16.067Z,6.24
2023-01-10T18:45:51.885Z,6.28
2023-01-10T18:49:33.717Z,6.33
2023-01-10T18:52:28.011Z,6.34
2023-01-10T18:55:13.336Z,6.37
2023-01-10T18:58:15.710Z,6.40
2023-01-10T19:01:19.739Z,6.41
2023-01-10T19:03:58.165Z,6.39
2023-01-10T19:06:37.255Z,6.42
2023-01-10T19:12:38.633Z,6.40
2023-01-10T19:15:45.975Z,6.40
2023-01-10T19:18:35.700Z,6.40
2023-01-10T19:24:08.636Z,6.41
2023-01-10T19:26:58.057Z,6.41
2023-01-10T19:29:55.506Z,6.40
2023-01-10T19:32:59.783Z,6.34
2023-01-10T19:39:25.227Z,6.39
2023-01-10T19:42:10.879Z,6.42
2023-01-10T19:44:56.685Z,6.47
2023-01-10T19:47:50.279Z,6.47
2023-01-10T19:50:31.432Z,6.46
2023-01-10T19:53:17.662Z,6.46
2023-01-10T19:56:10.411Z,6.47
2023-01-10T19:59:23.245Z,6.48
2023-01-10T20:03:10.943Z,6.47
2023-01-10T20:42:40.104Z,6.18
2023-01-10T20:51:58.787Z,6.12
2023-01-10T20:54:34.741Z,6.14
2023-01-10T20:58:18.651Z,6.11
2023-01-10T21:25:38.919Z,6.21
2023-01-10T21:35:59.583Z,6.38
2023-01-10T21:38:51.489Z,6.33
2023-01-10T21:46:17.877Z,6.13
2023-01-10T21:52:37.567Z,6.09
2023-01-10T22:01:44.567Z,6.05
2023-01-10T22:04:38.044Z,6.05
2023-01-10T22:07:34.680Z,6.09
2023-01-10T22:10:23.751Z,6.13
2023-01-10T22:13:03.612Z,6.13
2023-01-10T22:16:07.937Z,6.13
2023-01-10T22:19:03.437Z,6.13
2023-01-10T22:21:55.568Z,6.13
2023-01-10T22:24:51.749Z,6.13
2023-01-10T22:28:09.740Z,6.12
2023-01-10T22:31:52.520Z,6.10
2023-01-10T22:35:02.869Z,6.05
2023-01-10T22:38:34.312Z,6.04
2023-01-10T22:42:31.818Z,6.05
2023-01-10T22:46:18.890Z,6.06
2023-01-10T22:50:15.036Z,6.05
2023-01-10T22:53:36.923Z,6.06
2023-01-10T22:56:59.752Z,6.06
2023-01-10T23:00:56.300Z,6.05
2023-01-10T23:04:45.716Z,6.04
2023-01-10T23:08:28.367Z,6.06
2023-01-10T23:12:22.333Z,6.09
2023-01-10T23:15:48.326Z,6.05
2023-01-10T23:27:43.022Z,5.99
2023-01-10T23:31:06.873Z,6.00
2023-01-10T23:34:38.453Z,5.98
2023-01-10T23:37:50.039Z,5.99
2023-01-10T23:44:49.376Z,5.98
2023-01-10T23:48:23.421Z,5.96
2023-01-10T23:52:06.177Z,5.93
2023-01-10T23:55:02.712Z,5.90
2023-01-10T23:58:12.172Z,5.89
